createdAt,value
2019-01-26T00:00:44.608Z,99928.79
2019-01-26T00:03:15.856Z,99923.65
2019-01-26T00:05:46.747Z,99925.30
2019-01-26T00:08:17.643Z,99932.82
2019-01-26T00:10:48.559Z,99920.02
2019-01-26T00:13:19.455Z,99922.95
2019-01-26T00:15:50.473Z,99917.92
2019-01-26T00:18:21.695Z,99919.20
2019-01-26T00:20:52.579Z,99901.63
2019-01-26T00:23:23.510Z,99910.15
2019-01-26T00:25:54.487Z,99919.42
2019-01-26T00:28:25.716Z,99912.63
2019-01-26T00:30:56.671Z,99902.76
2019-01-26T00:33:27.573Z,99906.62
2019-01-26T00:35:58.783Z,99904.52
2019-01-26T00:38:29.755Z,99897.65
2019-01-26T00:41:00.785Z,99900.63
2019-01-26T00:43:31.687Z,99893.00
2019-01-26T00:46:02.582Z,99882.30
2019-01-26T00:48:33.553Z,99887.70
2019-01-26T00:51:04.686Z,99895.02
2019-01-26T00:53:35.695Z,99885.22
2019-01-26T00:56:06.762Z,99889.84
2019-01-26T00:58:37.660Z,99877.03
2019-01-26T01:01:08.578Z,99856.03
2019-01-26T01:03:39.544Z,99863.25
2019-01-26T01:06:10.517Z,99862.42
2019-01-26T01:08:41.419Z,99867.11
2019-01-26T01:11:12.494Z,99863.66
2019-01-26T01:13:43.696Z,99863.66
2019-01-26T01:16:14.582Z,99870.38
2019-01-26T01:18:45.555Z,99865.77
2019-01-26T01:21:16.489Z,99860.95
2019-01-26T01:23:47.689Z,99866.55
2019-01-26T01:26:18.612Z,99865.19
2019-01-26T01:28:49.503Z,99858.72
2019-01-26T01:31:20.446Z,99851.97
2019-01-26T01:33:51.444Z,99852.54
2019-01-26T01:36:22.404Z,99842.66
2019-01-26T01:38:53.336Z,99847.84
2019-01-26T01:41:24.535Z,99846.78
2019-01-26T01:43:55.575Z,99845.38
2019-01-26T01:46:26.547Z,99843.31
2019-01-26T01:48:57.421Z,99845.17
2019-01-26T01:51:28.734Z,99839.40
2019-01-26T01:54:00.212Z,99839.27
2019-01-26T01:56:31.471Z,99854.23
2019-01-26T01:59:02.403Z,99858.15
2019-01-26T02:01:33.360Z,99832.06
2019-01-26T02:04:04.572Z,99847.52
2019-01-26T02:06:35.549Z,99847.10
2019-01-26T02:09:09.573Z,99856.83
2019-01-26T02:11:40.915Z,99849.95
2019-01-26T02:14:12.186Z,99846.94
2019-01-26T02:16:49.926Z,99847.39
2019-01-26T02:19:15.996Z,99839.84
2019-01-26T02:21:46.952Z,99840.02
2019-01-26T02:24:17.848Z,99843.03
2019-01-26T02:26:48.769Z,99847.27
2019-01-26T02:29:19.781Z,99851.34
2019-01-26T02:31:50.736Z,99841.95
2019-01-26T02:34:21.971Z,99841.70
2019-01-26T02:36:53.239Z,99832.50
2019-01-26T02:39:24.497Z,99841.53
2019-01-26T02:41:55.380Z,99835.97
2019-01-26T02:44:26.626Z,99832.45
2019-01-26T02:46:58.081Z,99843.63
2019-01-26T02:49:29.337Z,99839.80
2019-01-26T02:52:00.333Z,99837.53
2019-01-26T02:54:31.271Z,99835.72
2019-01-26T02:57:02.282Z,99834.25
2019-01-26T02:59:33.295Z,99836.99
2019-01-26T03:02:04.997Z,99837.56
2019-01-26T03:04:35.957Z,99834.38
2019-01-26T03:07:07.468Z,99838.89
2019-01-26T03:09:38.393Z,99838.22
2019-01-26T03:12:09.407Z,99836.86
2019-01-26T03:14:40.309Z,99839.00
2019-01-26T03:17:11.339Z,99833.22
2019-01-26T03:19:42.361Z,99822.62
2019-01-26T03:22:13.654Z,99819.11
2019-01-26T03:24:44.577Z,99810.34
2019-01-26T03:27:15.563Z,99815.49
2019-01-26T03:29:46.565Z,99815.21
2019-01-26T03:32:17.487Z,99809.61
2019-01-26T03:34:48.408Z,99820.47
2019-01-26T03:37:19.338Z,99810.70
2019-01-26T03:39:50.309Z,99810.25
2019-01-26T03:42:21.234Z,99813.98
2019-01-26T03:44:52.133Z,99800.34
2019-01-26T03:47:23.137Z,99810.48
2019-01-26T03:49:54.085Z,99807.55
2019-01-26T03:52:25.027Z,99810.02
2019-01-26T03:54:55.979Z,99808.65
2019-01-26T03:57:26.985Z,99803.21
2019-01-26T03:59:58.370Z,99801.61
2019-01-26T04:02:29.321Z,99798.45
2019-01-26T04:05:00.904Z,99805.13
2019-01-26T04:07:31.972Z,99809.42
2019-01-26T04:10:03.179Z,99799.66
2019-01-26T04:12:34.130Z,99787.95
2019-01-26T04:15:05.672Z,99789.05
2019-01-26T04:17:36.874Z,99798.19
2019-01-26T04:20:09.995Z,99790.56
2019-01-26T04:22:41.039Z,99788.15
2019-01-26T04:25:12.103Z,99793.72
2019-01-26T04:27:43.069Z,99782.77
2019-01-26T04:30:18.068Z,99792.20
2019-01-26T04:32:49.180Z,99790.56
2019-01-26T04:35:20.104Z,99786.69
2019-01-26T04:37:51.066Z,99783.26
2019-01-26T04:40:22.045Z,99787.09
2019-01-26T04:42:52.973Z,99792.25
2019-01-26T04:45:25.284Z,99790.56
2019-01-26T04:47:56.165Z,99787.24
2019-01-26T04:50:27.090Z,99779.53
2019-01-26T04:52:58.059Z,99783.41
2019-01-26T04:55:28.986Z,99776.92
2019-01-26T04:57:59.943Z,99777.78
2019-01-26T05:00:31.344Z,99775.31
2019-01-26T05:03:02.534Z,99780.84
2019-01-26T05:05:33.513Z,99777.97
2019-01-26T05:08:04.873Z,99780.11
2019-01-26T05:10:35.874Z,99782.72
2019-01-26T05:13:06.815Z,99772.55
2019-01-26T05:15:38.052Z,99773.41
2019-01-26T05:18:09.018Z,99778.98
2019-01-26T05:20:39.933Z,99769.62
2019-01-26T05:23:10.936Z,99773.86
2019-01-26T05:25:41.836Z,99775.91
2019-01-26T05:28:13.039Z,99772.13
2019-01-26T05:30:44.044Z,99775.51
2019-01-26T05:33:14.978Z,99779.75
2019-01-26T05:35:45.906Z,99775.51
2019-01-26T05:38:16.792Z,99775.05
2019-01-26T05:40:47.693Z,99772.45
2019-01-26T05:43:18.623Z,99771.99
2019-01-26T05:45:49.553Z,99769.03
2019-01-26T05:48:20.519Z,99763.05
2019-01-26T05:50:51.406Z,99765.15
2019-01-26T05:53:22.612Z,99762.85
2019-01-26T05:55:53.553Z,99758.91
2019-01-26T05:58:24.491Z,99749.09
2019-01-26T06:00:55.798Z,99750.70
2019-01-26T06:03:26.709Z,99742.58
2019-01-26T06:05:57.620Z,99745.00
2019-01-26T06:08:28.547Z,99745.23
2019-01-26T06:10:59.506Z,99742.08
2019-01-26T06:13:30.457Z,99738.60
2019-01-26T06:16:01.351Z,99734.36
2019-01-26T06:18:32.254Z,99729.66
2019-01-26T06:21:03.218Z,99722.91
2019-01-26T06:23:34.475Z,99720.72
2019-01-26T06:26:05.547Z,99717.63
2019-01-26T06:28:36.461Z,99713.34
2019-01-26T06:31:07.387Z,99713.23
2019-01-26T06:33:38.302Z,99708.44
2019-01-26T06:36:09.230Z,99705.75
2019-01-26T06:38:40.241Z,99697.35
2019-01-26T06:41:11.210Z,99697.00
2019-01-26T06:43:42.099Z,99694.87
2019-01-26T06:46:13.017Z,99690.50
2019-01-26T06:48:44.818Z,99691.55
2019-01-26T06:51:15.729Z,99693.19
2019-01-26T06:53:46.700Z,99692.30
2019-01-26T06:56:18.572Z,99689.47
2019-01-26T06:58:49.870Z,99693.30
2019-01-26T07:01:20.827Z,99693.71
2019-01-26T07:03:51.773Z,99691.64
2019-01-26T07:06:34.148Z,99688.77
2019-01-26T07:09:08.563Z,99683.92
2019-01-26T07:11:39.573Z,99688.86
2019-01-26T07:14:11.093Z,99683.05
2019-01-26T07:16:42.065Z,99685.72
2019-01-26T07:19:13.003Z,99683.09
2019-01-26T07:21:43.910Z,99679.56
2019-01-26T07:24:14.813Z,99677.68
2019-01-26T07:26:45.788Z,99673.86
2019-01-26T07:29:16.970Z,99665.59
2019-01-26T07:31:47.855Z,99664.89
2019-01-26T07:34:18.859Z,99667.09
2019-01-26T07:36:49.820Z,99669.09
2019-01-26T07:39:20.771Z,99658.70
2019-01-26T07:41:51.729Z,99655.91
2019-01-26T07:44:22.922Z,99656.50
2019-01-26T07:46:53.846Z,99659.48
2019-01-26T07:49:24.827Z,99650.23
2019-01-26T07:51:56.012Z,99651.22
2019-01-26T07:54:26.953Z,99646.66
2019-01-26T07:56:57.885Z,99646.37
2019-01-26T07:59:28.792Z,99639.09
2019-01-26T08:01:59.731Z,99633.51
2019-01-26T08:04:30.713Z,99636.60
2019-01-26T08:07:01.618Z,99623.96
2019-01-26T08:09:32.510Z,99626.52
2019-01-26T08:12:03.570Z,99621.98
2019-01-26T08:14:34.490Z,99616.41
2019-01-26T08:17:05.370Z,99614.70
2019-01-26T08:19:36.341Z,99622.86
2019-01-26T08:22:07.242Z,99625.94
2019-01-26T08:24:38.192Z,99616.76
2019-01-26T08:27:09.158Z,99623.05
2019-01-26T08:29:40.070Z,99625.47
2019-01-26T08:32:10.955Z,99624.42
2019-01-26T08:34:42.213Z,99620.41
2019-01-26T08:37:13.118Z,99613.75
2019-01-26T08:39:44.101Z,99611.79
2019-01-26T08:42:15.349Z,99609.63
2019-01-26T08:44:46.273Z,99610.62
2019-01-26T08:47:17.234Z,99606.18
2019-01-26T08:49:48.491Z,99613.64
2019-01-26T08:52:19.757Z,99589.58
2019-01-26T08:54:50.669Z,99597.35
2019-01-26T08:57:21.648Z,99595.75
2019-01-26T08:59:52.596Z,99597.03
2019-01-26T09:02:42.421Z,99593.74
2019-01-26T09:05:15.503Z,99590.33
2019-01-26T09:07:46.567Z,99601.53
2019-01-26T09:10:17.497Z,99597.81
2019-01-26T09:12:48.405Z,99593.78
2019-01-26T09:15:19.376Z,99598.42
2019-01-26T09:17:50.336Z,99591.09
2019-01-26T09:20:22.477Z,99594.70
2019-01-26T09:22:53.481Z,99594.33
2019-01-26T09:25:24.489Z,99581.87
2019-01-26T09:27:55.715Z,99578.81
2019-01-26T09:30:26.697Z,99579.72
2019-01-26T09:32:57.581Z,99572.13
2019-01-26T09:35:28.496Z,99574.41
2019-01-26T09:37:59.503Z,99570.72
2019-01-26T09:40:30.487Z,99572.71
2019-01-26T09:43:01.401Z,99573.61
2019-01-26T09:45:32.770Z,99567.77
2019-01-26T09:48:03.980Z,99568.95
2019-01-26T09:50:35.263Z,99567.74
2019-01-26T09:53:07.128Z,99575.95
2019-01-26T09:55:38.050Z,99559.98
2019-01-26T09:58:09.020Z,99564.66
2019-01-26T10:00:39.967Z,99565.73
2019-01-26T10:03:10.940Z,99564.58
2019-01-26T10:05:41.836Z,99565.49
2019-01-26T10:08:12.891Z,99562.80
2019-01-26T10:10:43.906Z,99562.68
2019-01-26T10:13:15.008Z,99564.38
2019-01-26T10:15:45.941Z,99557.20
2019-01-26T10:18:16.857Z,99555.42
2019-01-26T10:20:47.772Z,99557.14
2019-01-26T10:23:18.717Z,99566.14
2019-01-26T10:25:50.041Z,99561.78
2019-01-26T10:28:21.074Z,99563.81
2019-01-26T10:31:01.371Z,99558.16
2019-01-26T10:33:32.489Z,99558.16
2019-01-26T10:36:22.295Z,99560.95
2019-01-26T10:39:03.923Z,99560.43
2019-01-26T10:42:05.868Z,99561.95
2019-01-26T10:44:38.516Z,99560.75
2019-01-26T10:47:10.264Z,99556.95
2019-01-26T10:49:41.175Z,99556.53
2019-01-26T10:52:12.218Z,99557.82
2019-01-26T10:54:43.259Z,99558.56
2019-01-26T10:57:14.208Z,99549.94
2019-01-26T10:59:45.467Z,99548.81
2019-01-26T11:02:16.886Z,99553.06
2019-01-26T11:04:48.001Z,99548.19
2019-01-26T11:07:18.999Z,99547.68
2019-01-26T11:09:50.260Z,99551.62
2019-01-26T11:12:21.242Z,99548.27
2019-01-26T11:14:52.213Z,99552.84
2019-01-26T11:17:23.453Z,99546.71
2019-01-26T11:19:54.366Z,99552.67
2019-01-26T11:22:25.622Z,99555.95
2019-01-26T11:24:56.522Z,99554.71
2019-01-26T11:27:27.448Z,99556.45
2019-01-26T11:29:58.411Z,99550.10
2019-01-26T11:32:29.385Z,99549.09
2019-01-26T11:35:00.684Z,99555.02
2019-01-26T11:37:31.629Z,99547.45
2019-01-26T11:40:15.805Z,99540.55
2019-01-26T11:42:46.995Z,99545.70
2019-01-26T11:45:40.382Z,99542.23
2019-01-26T11:48:23.461Z,99541.02
2019-01-26T11:51:02.628Z,99540.55
2019-01-26T11:53:33.528Z,99542.14
2019-01-26T11:56:22.160Z,99542.54
2019-01-26T11:58:53.179Z,99537.98
2019-01-26T12:01:37.479Z,99538.75
2019-01-26T12:04:18.082Z,99537.98
2019-01-26T12:06:57.070Z,99530.17
2019-01-26T12:09:28.265Z,99535.80
2019-01-26T12:11:59.272Z,99536.92
2019-01-26T12:14:30.537Z,99533.95
2019-01-26T12:17:01.829Z,99530.13
2019-01-26T12:19:32.832Z,99532.32
2019-01-26T12:22:03.768Z,99531.38
2019-01-26T12:24:35.118Z,99532.16
2019-01-26T12:27:06.495Z,99527.16
2019-01-26T12:29:38.016Z,99524.20
2019-01-26T12:32:09.019Z,99518.84
2019-01-26T12:34:40.300Z,99524.73
2019-01-26T12:37:11.262Z,99518.38
2019-01-26T12:39:42.828Z,99519.81
2019-01-26T12:42:13.721Z,99517.55
2019-01-26T12:44:45.386Z,99523.62
2019-01-26T12:47:17.143Z,99523.45
2019-01-26T12:49:48.232Z,99524.97
2019-01-26T12:52:19.429Z,99525.80
2019-01-26T12:54:50.827Z,99521.27
2019-01-26T12:57:21.861Z,99519.67
2019-01-26T12:59:53.104Z,99523.23
2019-01-26T13:02:24.075Z,99523.98
2019-01-26T13:04:55.117Z,99522.54
2019-01-26T13:07:26.034Z,99523.52
2019-01-26T13:09:57.316Z,99528.46
2019-01-26T13:12:29.172Z,99528.46
2019-01-26T13:15:02.643Z,99524.12
2019-01-26T13:17:33.579Z,99521.09
2019-01-26T13:20:06.719Z,99520.27
2019-01-26T13:22:37.690Z,99516.33
2019-01-26T13:25:10.060Z,99513.54
2019-01-26T13:27:41.293Z,99511.87
2019-01-26T13:30:16.996Z,99515.95
2019-01-26T13:32:48.565Z,99513.83
2019-01-26T13:35:21.069Z,99513.54
2019-01-26T13:37:52.082Z,99517.69
2019-01-26T13:40:23.194Z,99515.89
2019-01-26T13:42:54.532Z,99509.05
2019-01-26T13:45:25.566Z,99517.23
2019-01-26T13:47:57.051Z,99510.58
2019-01-26T13:50:28.018Z,99510.43
2019-01-26T13:53:00.061Z,99506.80
2019-01-26T13:55:30.976Z,99504.36
2019-01-26T13:58:01.967Z,99506.20
2019-01-26T14:00:33.489Z,99510.57
2019-01-26T14:03:04.973Z,99509.45
2019-01-26T14:05:36.078Z,99509.73
2019-01-26T14:08:07.424Z,99506.41
2019-01-26T14:10:38.347Z,99509.52
2019-01-26T14:13:09.659Z,99506.56
2019-01-26T14:15:40.603Z,99501.03
2019-01-26T14:18:11.550Z,99501.62
2019-01-26T14:20:42.876Z,99507.24
2019-01-26T14:23:13.814Z,99502.02
2019-01-26T14:25:44.771Z,99502.02
2019-01-26T14:28:15.723Z,99494.38
2019-01-26T14:30:52.438Z,99499.97
2019-01-26T14:33:23.485Z,99500.73
2019-01-26T14:35:54.486Z,99497.91
2019-01-26T14:38:25.992Z,99499.73
2019-01-26T14:40:57.310Z,99493.23
2019-01-26T14:43:30.438Z,99492.77
2019-01-26T14:46:01.462Z,99490.16
2019-01-26T14:48:32.425Z,99491.76
2019-01-26T14:51:04.115Z,99492.92
2019-01-26T14:53:35.564Z,99495.47
2019-01-26T14:56:07.076Z,99490.36
2019-01-26T14:58:39.718Z,99490.13
2019-01-26T15:01:11.860Z,99489.55
2019-01-26T15:03:43.083Z,99490.52
2019-01-26T15:06:13.990Z,99487.05
2019-01-26T15:08:45.046Z,99492.11
2019-01-26T15:11:15.927Z,99486.73
2019-01-26T15:13:46.914Z,99481.44
2019-01-26T15:16:17.886Z,99485.68
2019-01-26T15:18:48.843Z,99487.41
2019-01-26T15:21:20.058Z,99476.29
2019-01-26T15:23:51.513Z,99485.45
2019-01-26T15:26:22.489Z,99477.81
2019-01-26T15:28:54.427Z,99481.36
2019-01-26T15:31:25.566Z,99473.60
2019-01-26T15:33:57.673Z,99474.77
2019-01-26T15:36:29.029Z,99481.55
2019-01-26T15:39:00.294Z,99481.47
2019-01-26T15:41:33.444Z,99479.12
2019-01-26T15:44:04.343Z,99479.25
2019-01-26T15:46:35.332Z,99471.91
2019-01-26T15:49:06.272Z,99472.86
2019-01-26T15:51:37.284Z,99467.52
2019-01-26T15:54:08.258Z,99477.45
2019-01-26T15:56:39.190Z,99471.92
2019-01-26T15:59:10.924Z,99470.16
2019-01-26T16:01:41.891Z,99474.87
2019-01-26T16:04:12.860Z,99469.73
2019-01-26T16:06:44.103Z,99462.68
2019-01-26T16:09:15.370Z,99461.94
2019-01-26T16:11:49.102Z,99467.08
2019-01-26T16:14:20.184Z,99458.31
2019-01-26T16:16:51.696Z,99459.80
2019-01-26T16:19:22.696Z,99456.08
2019-01-26T16:21:53.749Z,99451.02
2019-01-26T16:24:24.702Z,99452.73
2019-01-26T16:26:55.702Z,99454.44
2019-01-26T16:29:26.722Z,99450.47
2019-01-26T16:31:57.942Z,99449.66
2019-01-26T16:34:29.341Z,99446.16
2019-01-26T16:37:02.126Z,99452.58
2019-01-26T16:39:33.373Z,99446.03
2019-01-26T16:42:04.816Z,99448.06
2019-01-26T16:44:38.634Z,99448.68
2019-01-26T16:47:09.718Z,99444.39
2019-01-26T16:49:41.422Z,99445.44
2019-01-26T16:52:14.067Z,99441.46
2019-01-26T16:54:45.159Z,99435.47
2019-01-26T16:57:16.505Z,99433.36
2019-01-26T16:59:47.429Z,99439.48
2019-01-26T17:02:18.347Z,99440.17
2019-01-26T17:04:49.443Z,99434.58
2019-01-26T17:07:20.411Z,99436.17
2019-01-26T17:09:51.305Z,99433.87
2019-01-26T17:12:22.462Z,99430.63
2019-01-26T17:14:53.382Z,99428.95
2019-01-26T17:17:24.281Z,99423.57
2019-01-26T17:19:55.268Z,99423.81
2019-01-26T17:22:26.179Z,99416.80
2019-01-26T17:24:57.121Z,99418.89
2019-01-26T17:27:28.460Z,99411.70
2019-01-26T17:29:59.384Z,99409.75
2019-01-26T17:32:30.391Z,99412.13
2019-01-26T17:35:01.985Z,99410.13
2019-01-26T17:37:32.938Z,99405.19
2019-01-26T17:40:04.100Z,99413.30
2019-01-26T17:42:35.047Z,99407.84
2019-01-26T17:45:07.337Z,99404.99
2019-01-26T17:47:38.267Z,99401.57
2019-01-26T17:50:13.423Z,99397.09
2019-01-26T17:52:44.343Z,99395.64
2019-01-26T17:55:15.500Z,99392.02
2019-01-26T17:57:46.637Z,99383.50
2019-01-26T18:00:33.214Z,99387.59
2019-01-26T18:03:04.303Z,99377.30
2019-01-26T18:05:35.335Z,99378.23
2019-01-26T18:08:06.492Z,99374.97
2019-01-26T18:10:37.474Z,99372.31
2019-01-26T18:13:08.849Z,99370.17
2019-01-26T18:15:39.766Z,99365.58
2019-01-26T18:18:10.823Z,99360.75
2019-01-26T18:20:42.060Z,99359.62
2019-01-26T18:23:15.214Z,99354.09
2019-01-26T18:25:47.392Z,99350.47
2019-01-26T18:28:18.518Z,99349.80
2019-01-26T18:30:50.261Z,99342.75
2019-01-26T18:33:21.210Z,99331.34
2019-01-26T18:35:53.941Z,99330.72
2019-01-26T18:38:24.907Z,99324.76
2019-01-26T18:40:56.439Z,99323.31
2019-01-26T18:43:27.440Z,99319.54
2019-01-26T18:45:58.966Z,99318.48
2019-01-26T18:48:29.915Z,99314.32
2019-01-26T18:51:00.888Z,99316.66
2019-01-26T18:53:31.851Z,99310.51
2019-01-26T18:56:02.781Z,99306.88
2019-01-26T18:58:34.400Z,99305.67
2019-01-26T19:01:06.830Z,99303.66
2019-01-26T19:04:10.351Z,99297.30
2019-01-26T19:06:41.341Z,99297.27
2019-01-26T19:09:13.873Z,99293.26
2019-01-26T19:11:45.939Z,99296.67
2019-01-26T19:14:16.906Z,99293.34
2019-01-26T19:16:48.283Z,99293.18
2019-01-26T19:19:19.271Z,99284.96
2019-01-26T19:21:52.202Z,99280.80
2019-01-26T19:24:23.200Z,99286.87
2019-01-26T19:26:54.452Z,99281.11
2019-01-26T19:29:25.363Z,99279.16
2019-01-26T19:31:56.319Z,99282.83
2019-01-26T19:34:27.292Z,99269.16
2019-01-26T19:36:58.900Z,99264.79
2019-01-26T19:39:29.948Z,99260.09
2019-01-26T19:42:01.181Z,99251.83
2019-01-26T19:44:32.546Z,99245.56
2019-01-26T19:47:06.417Z,99235.80
2019-01-26T19:49:37.921Z,99252.96
2019-01-26T19:52:09.330Z,99247.91
2019-01-26T19:54:41.450Z,99253.94
2019-01-26T19:57:13.054Z,99246.11
2019-01-26T19:59:44.311Z,99242.38
2019-01-26T20:02:15.676Z,99236.88
2019-01-26T20:04:47.258Z,99228.97
2019-01-26T20:07:18.565Z,99227.28
2019-01-26T20:09:49.615Z,99222.53
2019-01-26T20:12:21.989Z,99222.60
2019-01-26T20:14:53.254Z,99215.05
2019-01-26T20:17:24.328Z,99208.11
2019-01-26T20:19:55.556Z,99208.46
2019-01-26T20:22:26.892Z,99204.53
2019-01-26T20:24:58.166Z,99202.27
2019-01-26T20:27:29.161Z,99193.75
2019-01-26T20:30:00.227Z,99187.30
2019-01-26T20:32:31.659Z,99187.91
2019-01-26T20:35:02.660Z,99179.52
2019-01-26T20:37:34.527Z,99178.62
2019-01-26T20:40:07.097Z,99175.97
2019-01-26T20:42:38.129Z,99175.58
2019-01-26T20:45:16.626Z,99165.74
2019-01-26T20:47:48.208Z,99172.96
2019-01-26T20:50:19.294Z,99161.75
2019-01-26T20:52:50.352Z,99161.39
2019-01-26T20:55:21.289Z,99163.64
2019-01-26T20:57:52.254Z,99152.89
2019-01-26T21:00:29.832Z,99153.91
2019-01-26T21:03:00.923Z,99150.28
2019-01-26T21:05:31.934Z,99142.13
2019-01-26T21:08:04.169Z,99144.55
2019-01-26T21:10:35.519Z,99132.30
2019-01-26T21:13:06.935Z,99133.95
2019-01-26T21:15:37.904Z,99126.63
2019-01-26T21:18:09.186Z,99124.14
2019-01-26T21:20:40.127Z,99114.92
2019-01-26T21:23:11.714Z,99120.98
2019-01-26T21:25:43.614Z,99108.74
2019-01-26T21:28:14.584Z,99105.99
2019-01-26T21:30:45.507Z,99109.16
2019-01-26T21:33:16.768Z,99105.08
2019-01-26T21:35:49.949Z,99100.72
2019-01-26T21:38:20.900Z,99101.69
2019-01-26T21:40:51.902Z,99090.12
2019-01-26T21:43:23.356Z,99084.70
2019-01-26T21:45:54.344Z,99092.86
2019-01-26T21:48:25.314Z,99087.87
2019-01-26T21:50:56.911Z,99082.66
2019-01-26T21:53:30.026Z,99078.66
2019-01-26T21:56:01.317Z,99069.91
2019-01-26T21:58:32.285Z,99065.97
2019-01-26T22:01:03.294Z,99063.72
2019-01-26T22:03:34.298Z,99063.33
2019-01-26T22:06:05.504Z,99057.38
2019-01-26T22:08:36.714Z,99059.31
2019-01-26T22:11:07.786Z,99041.73
2019-01-26T22:13:38.785Z,99044.52
2019-01-26T22:16:10.391Z,99036.90
2019-01-26T22:18:41.466Z,99036.38
2019-01-26T22:21:12.423Z,99028.75
2019-01-26T22:23:43.425Z,99029.20
2019-01-26T22:26:14.496Z,99032.00
2019-01-26T22:28:45.417Z,99020.37
2019-01-26T22:31:16.351Z,99015.89
2019-01-26T22:33:47.308Z,99008.52
2019-01-26T22:36:19.177Z,99008.29
2019-01-26T22:38:51.319Z,99008.52
2019-01-26T22:41:22.554Z,99001.70
2019-01-26T22:43:53.651Z,99001.03
2019-01-26T22:46:24.645Z,98999.45
2019-01-26T22:48:55.546Z,98990.21
2019-01-26T22:51:26.466Z,98995.34
2019-01-26T22:53:57.478Z,98986.09
2019-01-26T22:56:28.449Z,98978.30
2019-01-26T22:58:59.457Z,98981.77
2019-01-26T23:01:35.494Z,98974.75
2019-01-26T23:05:21.354Z,98970.69
2019-01-26T23:08:10.805Z,98967.59
2019-01-26T23:11:14.789Z,98957.33
2019-01-26T23:14:39.368Z,98962.45
2019-01-26T23:18:01.207Z,98950.61
2019-01-26T23:21:15.989Z,98936.48
2019-01-26T23:24:41.716Z,98928.92
2019-01-26T23:27:40.746Z,98925.12
2019-01-26T23:31:15.652Z,98921.81
2019-01-26T23:33:48.189Z,98914.11
2019-01-26T23:36:19.417Z,98911.25
2019-01-26T23:38:50.402Z,98899.48
2019-01-26T23:41:21.762Z,98900.98
2019-01-26T23:43:52.676Z,98891.09
2019-01-26T23:46:23.765Z,98884.08
2019-01-26T23:48:54.760Z,98885.44
2019-01-26T23:51:25.721Z,98874.79
2019-01-26T23:53:56.754Z,98867.55
2019-01-26T23:56:27.727Z,98867.81
2019-01-26T23:58:58.732Z,98853.83
